الصفحة الرئيسية
METAR-TAF:

METAR-TAF

مطار :

مطار برج العرب الدولي

الإسكندرية-مطار برج العرب, مصر

دائرة عرض: 31-31N, خط طول: 030-10E, ارتفاع: 54 متر

مراقبة الطقس الحالي

تاريخ ووقت الإصدار 1ساعة و 15 دقيقة قبل الساعة 02:00UTC
ريح 7 عقدة من الجنوب/الجنوب الغربي
درجة الحرارة 12°درجة مئوية
الرطوبة 88%
ضغط 1018 hPa
الرؤية 10 كم أو أكثر
الغيوم لا تقل 1500 م ولا وجود لمزنة ركامية السحاب الأسود

METAR: HEBA 120200Z 20007KT CAVOK 12/10 Q1018 NOSIG

زمن: 05:15 (03:15 UTC)

توقعات

تاريخ ووقت الإصدار 4ساعات و 15 دقيقة قبل الساعة 23:00UTC
التوقعات صالحة من12 الساعة 00 UTC إلى 13 الساعة 06 UTC
ريح 11 عقدة من الغرب/الجنوب الغربي
الرؤية 10 كم أو أكثر
غيوم متفرقة على ارتفاع 2000 قدم

TAF: HEBA 112300Z 1200/1306 24011KT 9999 SCT020

أرصاد الطقس والتوقعات من أكثر من 4000 مطار (تقارير الطقس للمطار METAR والتنبؤ بالطقس بالمطارTAF).

المحطات المتاحة هي النقط الصفراء والحمراء على الخريطة.

حرك المؤشر فوق النقطة لمعرفة اسم المحطة.

ثم انقر لمعرفة أرصاد وتوقعات الطقس.

لتغيير الخارطة: اضغط على الأزرار الخضراء مع رمز الصليب الأسود للتكبير. على الزر الأخضر مع شرطة للتصغير، أو على الأسهم الخضراء للخرائط المجاورة.


METAR-TAF: